createdAt,value
2019-01-25T00:02:15.957Z,45.50
2019-01-25T00:04:47.050Z,45.73
2019-01-25T00:07:18.061Z,43.70
2019-01-25T00:09:48.901Z,43.13
2019-01-25T00:12:19.673Z,43.10
2019-01-25T00:14:50.463Z,43.10
2019-01-25T00:17:22.584Z,40.20
2019-01-25T00:19:53.449Z,42.37
2019-01-25T00:22:24.226Z,37.30
2019-01-25T00:24:55.082Z,38.23
2019-01-25T00:27:25.913Z,38.03
2019-01-25T00:29:57.079Z,35.77
2019-01-25T00:32:27.926Z,37.73
2019-01-25T00:34:59.061Z,36.47
2019-01-25T00:37:29.828Z,36.70
2019-01-25T00:40:06.083Z,35.93
2019-01-25T00:42:33.272Z,37.67
2019-01-25T00:45:04.641Z,35.40
2019-01-25T00:47:35.657Z,37.17
2019-01-25T00:50:11.705Z,36.10
2019-01-25T00:52:43.142Z,36.70
2019-01-25T00:55:14.085Z,35.03
2019-01-25T00:57:44.926Z,36.03
2019-01-25T01:00:18.427Z,35.93
2019-01-25T01:02:49.352Z,35.17
2019-01-25T01:05:20.922Z,35.77
2019-01-25T01:07:52.838Z,34.63
2019-01-25T01:10:23.721Z,35.07
2019-01-25T01:12:54.745Z,35.33
2019-01-25T01:15:25.550Z,35.03
2019-01-25T01:17:56.436Z,35.93
2019-01-25T01:20:27.525Z,36.23
2019-01-25T01:22:58.453Z,37.07
2019-01-25T01:25:29.381Z,36.27
2019-01-25T01:28:00.624Z,35.97
2019-01-25T01:30:31.724Z,37.03
2019-01-25T01:33:02.802Z,37.47
2019-01-25T01:35:34.730Z,35.37
2019-01-25T01:38:05.579Z,37.83
2019-01-25T01:40:36.650Z,36.40
2019-01-25T01:43:07.803Z,36.53
2019-01-25T01:45:38.994Z,36.17
2019-01-25T01:48:10.049Z,35.00
2019-01-25T01:50:41.280Z,35.73
2019-01-25T01:53:12.137Z,37.40
2019-01-25T01:55:43.370Z,34.77
2019-01-25T01:58:14.148Z,36.47
2019-01-25T02:00:45.004Z,36.67
2019-01-25T02:03:16.075Z,34.90
2019-01-25T02:05:46.960Z,35.30
2019-01-25T02:08:18.027Z,37.43
2019-01-25T02:10:48.817Z,36.03
2019-01-25T02:13:19.669Z,36.20
2019-01-25T02:15:50.783Z,36.27
2019-01-25T02:18:21.631Z,37.30
2019-01-25T02:20:52.609Z,36.33
2019-01-25T02:23:23.503Z,34.63
2019-01-25T02:25:54.889Z,37.13
2019-01-25T02:28:25.899Z,35.40
2019-01-25T02:30:56.689Z,36.93
2019-01-25T02:33:29.275Z,36.97
2019-01-25T02:36:00.624Z,35.93
2019-01-25T02:38:31.729Z,36.23
2019-01-25T02:41:02.672Z,34.10
2019-01-25T02:43:33.892Z,35.03
2019-01-25T02:46:05.012Z,36.23
2019-01-25T02:48:35.798Z,37.63
2019-01-25T02:51:06.814Z,36.87
2019-01-25T02:53:37.696Z,36.43
2019-01-25T02:56:08.620Z,36.63
2019-01-25T02:58:39.639Z,36.43
2019-01-25T03:01:10.525Z,33.47
2019-01-25T03:03:41.618Z,35.73
2019-01-25T03:06:12.720Z,37.17
2019-01-25T03:08:43.820Z,37.07
2019-01-25T03:11:15.003Z,36.00
2019-01-25T03:13:46.026Z,35.97
2019-01-25T03:16:17.059Z,35.87
2019-01-25T03:18:48.055Z,36.60
2019-01-25T03:21:18.928Z,35.60
2019-01-25T03:23:49.991Z,35.97
2019-01-25T03:26:21.070Z,36.70
2019-01-25T03:28:52.129Z,37.80
2019-01-25T03:31:23.185Z,38.10
2019-01-25T03:33:54.042Z,35.80
2019-01-25T03:36:24.978Z,36.20
2019-01-25T03:38:56.227Z,36.33
2019-01-25T03:41:27.172Z,36.00
2019-01-25T03:43:58.181Z,35.00
2019-01-25T03:46:29.122Z,34.10
2019-01-25T03:48:59.910Z,35.97
2019-01-25T03:51:31.016Z,36.87
2019-01-25T03:54:02.103Z,37.33
2019-01-25T03:56:32.943Z,37.17
2019-01-25T03:59:03.843Z,37.40
2019-01-25T04:01:34.933Z,36.77
2019-01-25T04:04:05.979Z,35.13
2019-01-25T04:06:36.803Z,37.53
2019-01-25T04:09:09.694Z,38.87
2019-01-25T04:11:40.677Z,36.47
2019-01-25T04:14:11.508Z,36.33
2019-01-25T04:16:42.485Z,36.90
2019-01-25T04:19:13.598Z,37.17
2019-01-25T04:21:44.427Z,36.83
2019-01-25T04:24:15.202Z,36.57
2019-01-25T04:26:46.141Z,36.07
2019-01-25T04:29:16.921Z,35.23
2019-01-25T04:31:47.781Z,36.17
2019-01-25T04:34:18.732Z,36.23
2019-01-25T04:36:49.546Z,36.23
2019-01-25T04:39:20.564Z,35.63
2019-01-25T04:41:51.448Z,35.80
2019-01-25T04:44:22.413Z,35.57
2019-01-25T04:46:53.204Z,36.97
2019-01-25T04:49:24.107Z,36.17
2019-01-25T04:51:55.251Z,36.00
2019-01-25T04:54:26.534Z,35.17
2019-01-25T04:56:57.633Z,35.43
2019-01-25T04:59:30.184Z,35.27
2019-01-25T05:02:01.057Z,37.03
2019-01-25T05:04:35.928Z,34.43
2019-01-25T05:07:06.875Z,33.83
2019-01-25T05:09:39.461Z,34.67
2019-01-25T05:12:10.322Z,33.87
2019-01-25T05:14:41.342Z,35.00
2019-01-25T05:17:12.483Z,35.70
2019-01-25T05:19:43.500Z,34.47
2019-01-25T05:22:14.747Z,34.83
2019-01-25T05:24:45.760Z,35.00
2019-01-25T05:27:16.843Z,35.20
2019-01-25T05:29:55.454Z,35.57
2019-01-25T05:32:26.606Z,37.27
2019-01-25T05:34:57.682Z,37.53
2019-01-25T05:37:28.701Z,36.20
2019-01-25T05:39:59.688Z,37.90
2019-01-25T05:42:30.821Z,40.37
2019-01-25T05:45:07.962Z,38.57
2019-01-25T05:47:39.015Z,38.53
2019-01-25T05:50:11.167Z,38.47
2019-01-25T05:52:42.195Z,39.47
2019-01-25T05:55:17.304Z,39.97
2019-01-25T05:57:48.437Z,40.93
2019-01-25T06:00:27.567Z,39.83
2019-01-25T06:03:08.134Z,41.37
2019-01-25T06:05:39.129Z,40.30
2019-01-25T06:08:43.534Z,43.07
2019-01-25T06:11:09.655Z,44.40
2019-01-25T06:13:41.521Z,42.93
2019-01-25T06:16:12.502Z,43.07
2019-01-25T06:18:43.363Z,42.47
2019-01-25T06:21:14.441Z,42.13
2019-01-25T06:23:45.284Z,44.00
2019-01-25T06:26:16.140Z,42.27
2019-01-25T06:28:51.464Z,41.03
2019-01-25T06:31:22.312Z,40.60
2019-01-25T06:33:53.176Z,43.50
2019-01-25T06:36:24.202Z,43.30
2019-01-25T06:38:55.060Z,42.57
2019-01-25T06:41:26.494Z,41.17
2019-01-25T06:43:57.609Z,43.60
2019-01-25T06:46:29.354Z,42.60
2019-01-25T06:49:00.468Z,43.67
2019-01-25T06:51:31.241Z,44.00
2019-01-25T06:54:02.282Z,43.73
2019-01-25T06:56:33.087Z,43.57
2019-01-25T06:59:12.431Z,45.57
2019-01-25T07:02:05.211Z,45.03
2019-01-25T07:04:37.864Z,42.40
2019-01-25T07:07:17.657Z,43.30
2019-01-25T07:09:48.440Z,42.10
2019-01-25T07:12:19.217Z,43.40
2019-01-25T07:14:50.272Z,44.17
2019-01-25T07:17:22.392Z,44.47
2019-01-25T07:19:53.489Z,47.83
2019-01-25T07:22:24.398Z,43.70
2019-01-25T07:24:57.288Z,45.43
2019-01-25T07:27:28.391Z,44.67
2019-01-25T07:29:59.693Z,43.93
2019-01-25T07:32:30.543Z,44.63
2019-01-25T07:35:01.732Z,46.43
2019-01-25T07:37:32.580Z,44.73
2019-01-25T07:40:04.529Z,45.60
2019-01-25T07:42:35.717Z,46.77
2019-01-25T07:45:06.906Z,45.47
2019-01-25T07:47:37.787Z,45.33
2019-01-25T07:50:08.688Z,44.53
2019-01-25T07:52:40.086Z,42.63
2019-01-25T07:55:11.345Z,45.23
2019-01-25T07:57:42.444Z,46.97
2019-01-25T08:00:13.937Z,43.90
2019-01-25T08:02:44.925Z,49.27
2019-01-25T08:05:16.029Z,50.27
2019-01-25T08:07:47.238Z,59.43
2019-01-25T08:10:18.459Z,52.67
2019-01-25T08:12:50.270Z,74.50
2019-01-25T08:15:21.847Z,50.40
2019-01-25T08:17:53.068Z,55.20
2019-01-25T08:20:23.989Z,50.20
2019-01-25T08:22:54.845Z,46.63
2019-01-25T08:25:25.947Z,47.83
2019-01-25T08:27:56.860Z,47.73
2019-01-25T08:30:28.156Z,46.63
2019-01-25T08:32:59.163Z,46.87
2019-01-25T08:35:30.120Z,45.87
2019-01-25T08:38:01.132Z,47.80
2019-01-25T08:40:32.222Z,48.03
2019-01-25T08:43:03.059Z,46.00
2019-01-25T08:45:34.527Z,48.80
2019-01-25T08:48:06.038Z,46.77
2019-01-25T08:50:37.608Z,48.40
2019-01-25T08:53:08.717Z,44.20
2019-01-25T08:55:39.593Z,47.00
2019-01-25T08:58:10.735Z,47.83
2019-01-25T09:00:41.837Z,46.90
2019-01-25T09:03:12.689Z,50.03
2019-01-25T09:05:43.502Z,45.13
2019-01-25T09:08:14.288Z,48.43
2019-01-25T09:10:45.403Z,45.33
2019-01-25T09:13:16.401Z,45.03
2019-01-25T09:15:47.214Z,44.90
2019-01-25T09:18:18.510Z,46.67
2019-01-25T09:20:50.342Z,45.40
2019-01-25T09:23:21.241Z,45.77
2019-01-25T09:25:52.275Z,47.30
2019-01-25T09:28:23.361Z,46.63
2019-01-25T09:30:54.396Z,43.93
2019-01-25T09:33:25.243Z,44.97
2019-01-25T09:35:56.362Z,45.17
2019-01-25T09:38:28.609Z,44.20
2019-01-25T09:40:59.732Z,45.73
2019-01-25T09:43:30.629Z,44.00
2019-01-25T09:46:01.658Z,42.97
2019-01-25T09:48:32.680Z,43.30
2019-01-25T09:51:03.657Z,45.50
2019-01-25T09:53:34.551Z,45.60
2019-01-25T09:56:05.529Z,45.50
2019-01-25T09:58:38.743Z,45.23
2019-01-25T10:01:10.701Z,45.43
2019-01-25T10:03:42.568Z,44.20
2019-01-25T10:06:13.554Z,44.57
2019-01-25T10:08:44.485Z,45.10
2019-01-25T10:11:15.291Z,46.13
2019-01-25T10:13:46.083Z,44.27
2019-01-25T10:16:17.692Z,56.70
2019-01-25T10:18:49.675Z,46.33
2019-01-25T10:21:20.639Z,53.00
2019-01-25T10:23:51.654Z,45.10
2019-01-25T10:26:22.649Z,45.43
2019-01-25T10:28:53.841Z,45.73
2019-01-25T10:31:24.723Z,45.13
2019-01-25T10:33:55.491Z,45.17
2019-01-25T10:36:26.451Z,44.90
2019-01-25T10:38:57.612Z,43.97
2019-01-25T10:41:28.851Z,44.53
2019-01-25T10:43:59.723Z,43.97
2019-01-25T10:46:30.590Z,39.17
2019-01-25T10:49:01.656Z,44.60
2019-01-25T10:51:32.600Z,44.67
2019-01-25T10:54:03.562Z,43.87
2019-01-25T10:56:34.491Z,49.90
2019-01-25T10:59:05.623Z,43.33
2019-01-25T11:01:37.599Z,44.77
2019-01-25T11:04:11.574Z,50.50
2019-01-25T11:06:41.818Z,49.00
2019-01-25T11:09:12.906Z,43.30
2019-01-25T11:11:44.110Z,42.63
2019-01-25T11:14:14.987Z,42.33
2019-01-25T11:16:45.814Z,43.13
2019-01-25T11:19:16.665Z,42.80
2019-01-25T11:21:47.569Z,43.17
2019-01-25T11:24:18.444Z,43.43
2019-01-25T11:26:49.242Z,41.07
2019-01-25T11:29:20.381Z,44.00
2019-01-25T11:31:51.308Z,40.57
2019-01-25T11:34:22.233Z,59.10
2019-01-25T11:36:53.402Z,44.93
2019-01-25T11:39:24.748Z,46.57
2019-01-25T11:41:55.540Z,48.63
2019-01-25T11:44:27.046Z,63.03
2019-01-25T11:46:58.388Z,43.27
2019-01-25T11:49:29.424Z,45.73
2019-01-25T11:52:00.213Z,41.30
2019-01-25T11:54:30.991Z,38.60
2019-01-25T11:57:01.826Z,41.00
2019-01-25T11:59:32.704Z,43.83
2019-01-25T12:02:03.630Z,42.63
2019-01-25T12:04:34.962Z,40.40
2019-01-25T12:07:05.876Z,42.57
2019-01-25T12:09:36.683Z,42.47
2019-01-25T12:12:07.790Z,42.53
2019-01-25T12:14:38.661Z,41.33
2019-01-25T12:17:09.864Z,39.40
2019-01-25T12:19:41.013Z,39.67
2019-01-25T12:22:12.160Z,40.60
2019-01-25T12:24:43.247Z,39.67
2019-01-25T12:27:14.255Z,39.23
2019-01-25T12:29:45.488Z,40.87
2019-01-25T12:32:16.312Z,40.47
2019-01-25T12:34:47.386Z,39.77
2019-01-25T12:37:18.405Z,37.47
2019-01-25T12:39:49.553Z,39.17
2019-01-25T12:42:20.433Z,41.40
2019-01-25T12:44:51.843Z,39.70
2019-01-25T12:47:22.847Z,38.17
2019-01-25T12:49:53.723Z,39.63
2019-01-25T12:52:24.502Z,39.20
2019-01-25T12:54:55.414Z,38.60
2019-01-25T12:57:26.272Z,40.20
2019-01-25T12:59:57.372Z,37.63
2019-01-25T13:02:28.149Z,37.27
2019-01-25T13:04:59.015Z,38.20
2019-01-25T13:07:30.007Z,38.00
2019-01-25T13:10:01.134Z,39.20
2019-01-25T13:12:33.259Z,37.87
2019-01-25T13:15:05.268Z,37.37
2019-01-25T13:17:36.119Z,38.20
2019-01-25T13:20:10.742Z,39.60
2019-01-25T13:22:41.786Z,40.60
2019-01-25T13:25:12.963Z,37.83
2019-01-25T13:27:44.060Z,35.77
2019-01-25T13:30:17.330Z,39.20
2019-01-25T13:32:48.288Z,40.03
2019-01-25T13:35:19.635Z,38.73
2019-01-25T13:37:50.788Z,38.73
2019-01-25T13:40:22.996Z,38.00
2019-01-25T13:42:54.251Z,36.73
2019-01-25T13:45:25.859Z,35.67
2019-01-25T13:47:56.801Z,36.53
2019-01-25T13:50:28.160Z,36.37
2019-01-25T13:52:59.422Z,35.83
2019-01-25T13:55:30.537Z,37.40
2019-01-25T13:58:01.479Z,37.37
2019-01-25T14:00:33.700Z,37.70
2019-01-25T14:03:04.932Z,33.97
2019-01-25T14:05:36.032Z,35.33
2019-01-25T14:08:06.873Z,34.57
2019-01-25T14:10:39.458Z,36.30
2019-01-25T14:13:10.299Z,36.97
2019-01-25T14:15:41.336Z,34.90
2019-01-25T14:18:12.224Z,33.77
2019-01-25T14:20:43.145Z,35.20
2019-01-25T14:23:14.064Z,34.47
2019-01-25T14:25:44.981Z,34.67
2019-01-25T14:28:15.820Z,33.30
2019-01-25T14:30:46.851Z,33.00
2019-01-25T14:33:17.912Z,34.50
2019-01-25T14:35:48.772Z,34.17
2019-01-25T14:38:19.563Z,35.90
2019-01-25T14:40:50.424Z,34.80
2019-01-25T14:43:21.501Z,34.93
2019-01-25T14:45:52.623Z,34.23
2019-01-25T14:48:23.792Z,33.37
2019-01-25T14:50:54.995Z,35.17
2019-01-25T14:53:25.817Z,34.03
2019-01-25T14:55:56.900Z,33.57
2019-01-25T14:58:27.819Z,31.57
2019-01-25T15:00:58.758Z,31.17
2019-01-25T15:03:29.599Z,32.97
2019-01-25T15:06:00.747Z,33.07
2019-01-25T15:08:31.649Z,33.23
2019-01-25T15:11:02.822Z,30.17
2019-01-25T15:13:33.672Z,33.40
2019-01-25T15:16:04.535Z,33.10
2019-01-25T15:18:35.347Z,31.87
2019-01-25T15:21:06.404Z,31.63
2019-01-25T15:23:37.319Z,31.13
2019-01-25T15:26:08.567Z,31.33
2019-01-25T15:28:39.707Z,32.03
2019-01-25T15:31:10.630Z,31.50
2019-01-25T15:33:41.557Z,33.73
2019-01-25T15:36:13.520Z,30.93
2019-01-25T15:38:44.792Z,31.03
2019-01-25T15:41:15.668Z,30.77
2019-01-25T15:43:46.582Z,32.17
2019-01-25T15:46:17.519Z,31.17
2019-01-25T15:48:48.348Z,31.33
2019-01-25T15:51:19.592Z,34.83
2019-01-25T15:53:50.508Z,33.00
2019-01-25T15:56:21.500Z,32.67
2019-01-25T15:58:52.339Z,31.50
2019-01-25T16:01:23.869Z,32.87
2019-01-25T16:03:55.724Z,33.30
2019-01-25T16:06:26.767Z,32.53
2019-01-25T16:08:58.143Z,31.87
2019-01-25T16:11:29.363Z,32.90
2019-01-25T16:14:00.228Z,33.10
2019-01-25T16:16:31.091Z,32.63
2019-01-25T16:19:02.213Z,33.03
2019-01-25T16:21:33.529Z,30.53
2019-01-25T16:24:04.582Z,32.40
2019-01-25T16:26:35.716Z,31.03
2019-01-25T16:29:06.892Z,32.40
2019-01-25T16:31:38.008Z,31.20
2019-01-25T16:34:09.015Z,31.93
2019-01-25T16:36:58.609Z,31.43
2019-01-25T16:39:29.606Z,32.30
2019-01-25T16:42:00.388Z,31.30
2019-01-25T16:44:31.224Z,34.83
2019-01-25T16:47:02.087Z,35.37
2019-01-25T16:49:32.943Z,34.33
2019-01-25T16:52:03.799Z,34.37
2019-01-25T16:54:34.578Z,35.47
2019-01-25T16:57:05.761Z,35.53
2019-01-25T16:59:36.845Z,35.33
2019-01-25T17:02:07.711Z,36.10
2019-01-25T17:04:38.548Z,34.43
2019-01-25T17:07:09.652Z,32.77
2019-01-25T17:09:40.420Z,33.90
2019-01-25T17:12:11.570Z,35.00
2019-01-25T17:14:42.727Z,33.30
2019-01-25T17:17:13.523Z,32.40
2019-01-25T17:19:44.623Z,33.37
2019-01-25T17:22:15.636Z,33.23
2019-01-25T17:24:46.407Z,32.97
2019-01-25T17:27:17.187Z,34.53
2019-01-25T17:29:47.960Z,33.57
2019-01-25T17:32:19.018Z,33.63
2019-01-25T17:34:50.900Z,34.07
2019-01-25T17:37:22.653Z,34.17
2019-01-25T17:39:53.507Z,34.77
2019-01-25T17:42:24.439Z,35.20
2019-01-25T17:44:55.508Z,33.50
2019-01-25T17:47:26.306Z,33.80
2019-01-25T17:49:57.142Z,32.83
2019-01-25T17:52:28.533Z,33.67
2019-01-25T17:54:59.552Z,33.40
2019-01-25T17:57:31.448Z,32.87
2019-01-25T18:00:02.217Z,33.23
2019-01-25T18:02:34.452Z,31.73
2019-01-25T18:05:06.919Z,33.80
2019-01-25T18:07:37.861Z,35.07
2019-01-25T18:10:11.595Z,36.17
2019-01-25T18:12:43.000Z,35.40
2019-01-25T18:15:14.658Z,32.90
2019-01-25T18:17:45.753Z,33.60
2019-01-25T18:20:17.002Z,32.93
2019-01-25T18:22:47.955Z,33.40
2019-01-25T18:25:32.444Z,33.20
2019-01-25T18:28:03.616Z,35.97
2019-01-25T18:30:41.503Z,33.97
2019-01-25T18:33:12.484Z,31.03
2019-01-25T18:35:43.551Z,33.40
2019-01-25T18:38:14.426Z,33.30
2019-01-25T18:40:45.679Z,35.90
2019-01-25T18:43:17.622Z,31.70
2019-01-25T18:45:48.512Z,32.63
2019-01-25T18:48:19.663Z,30.93
2019-01-25T18:50:50.561Z,30.97
2019-01-25T18:53:21.946Z,28.87
2019-01-25T18:55:52.859Z,29.40
2019-01-25T18:58:23.740Z,30.07
2019-01-25T19:00:55.488Z,30.97
2019-01-25T19:03:26.450Z,31.00
2019-01-25T19:05:57.497Z,28.97
2019-01-25T19:08:28.541Z,29.20
2019-01-25T19:10:59.535Z,29.30
2019-01-25T19:13:30.560Z,29.07
2019-01-25T19:16:01.808Z,28.43
2019-01-25T19:18:32.758Z,28.83
2019-01-25T19:21:03.769Z,26.43
2019-01-25T19:23:34.630Z,27.57
2019-01-25T19:26:05.724Z,26.77
2019-01-25T19:28:36.601Z,27.27
2019-01-25T19:31:07.469Z,28.10
2019-01-25T19:33:38.707Z,25.73
2019-01-25T19:36:09.632Z,27.73
2019-01-25T19:38:40.846Z,28.23
2019-01-25T19:41:11.923Z,27.93
2019-01-25T19:43:42.800Z,26.10
2019-01-25T19:46:13.833Z,30.13
2019-01-25T19:48:44.711Z,28.40
2019-01-25T19:51:15.854Z,27.37
2019-01-25T19:53:46.951Z,27.33
2019-01-25T19:56:18.341Z,25.70
2019-01-25T19:58:49.201Z,27.03
2019-01-25T20:01:19.972Z,28.40
2019-01-25T20:03:50.840Z,26.90
2019-01-25T20:06:21.616Z,27.47
2019-01-25T20:08:52.484Z,27.17
2019-01-25T20:11:23.636Z,27.90
2019-01-25T20:13:54.657Z,27.23
2019-01-25T20:16:25.960Z,27.90
2019-01-25T20:18:57.060Z,26.87
2019-01-25T20:21:28.005Z,26.93
2019-01-25T20:23:58.801Z,27.30
2019-01-25T20:26:30.545Z,25.87
2019-01-25T20:29:01.637Z,26.93
2019-01-25T20:31:32.409Z,27.90
2019-01-25T20:34:03.790Z,26.87
2019-01-25T20:36:34.985Z,39.83
2019-01-25T20:39:08.079Z,27.73
2019-01-25T20:41:39.579Z,27.03
2019-01-25T20:44:10.367Z,26.93
2019-01-25T20:46:41.264Z,30.43
2019-01-25T20:49:12.360Z,30.40
2019-01-25T20:51:43.443Z,26.43
2019-01-25T20:54:14.313Z,25.83
2019-01-25T20:56:45.222Z,24.80
2019-01-25T20:59:16.307Z,26.37
2019-01-25T21:01:47.396Z,27.20
2019-01-25T21:04:18.362Z,25.43
2019-01-25T21:06:49.218Z,25.70
2019-01-25T21:09:20.092Z,26.33
2019-01-25T21:11:51.172Z,27.43
2019-01-25T21:14:22.205Z,27.43
2019-01-25T21:16:53.052Z,26.13
2019-01-25T21:19:24.069Z,25.23
2019-01-25T21:21:55.090Z,26.97
2019-01-25T21:24:26.117Z,27.83
2019-01-25T21:26:56.959Z,29.90
2019-01-25T21:29:28.098Z,28.83
2019-01-25T21:31:58.966Z,28.47
2019-01-25T21:34:29.775Z,26.83
2019-01-25T21:37:00.794Z,30.13
2019-01-25T21:39:31.907Z,29.63
2019-01-25T21:42:02.699Z,29.40
2019-01-25T21:44:33.805Z,31.00
2019-01-25T21:47:05.026Z,27.57
2019-01-25T21:49:36.119Z,31.40
2019-01-25T21:52:07.046Z,32.10
2019-01-25T21:54:37.909Z,30.03
2019-01-25T21:57:08.781Z,31.77
2019-01-25T21:59:39.721Z,30.70
2019-01-25T22:02:10.581Z,32.33
2019-01-25T22:04:41.441Z,32.43
2019-01-25T22:07:12.527Z,32.23
2019-01-25T22:09:43.630Z,31.07
2019-01-25T22:12:14.492Z,31.07
2019-01-25T22:14:45.368Z,32.43
2019-01-25T22:17:16.221Z,31.20
2019-01-25T22:19:47.409Z,32.23
2019-01-25T22:22:18.492Z,30.93
2019-01-25T22:24:49.637Z,29.10
2019-01-25T22:27:21.015Z,29.07
2019-01-25T22:29:52.361Z,29.03
2019-01-25T22:32:23.593Z,26.13
2019-01-25T22:34:54.763Z,27.40
2019-01-25T22:37:25.859Z,26.87
2019-01-25T22:39:57.037Z,26.43
2019-01-25T22:42:27.812Z,26.30
2019-01-25T22:44:58.682Z,26.63
2019-01-25T22:47:29.464Z,26.13
2019-01-25T22:50:00.268Z,25.77
2019-01-25T22:52:31.351Z,26.20
2019-01-25T22:55:02.149Z,25.80
2019-01-25T22:57:33.068Z,24.53
2019-01-25T23:00:05.969Z,25.00
2019-01-25T23:02:38.620Z,25.97
2019-01-25T23:05:40.356Z,24.97
2019-01-25T23:08:11.276Z,23.83
2019-01-25T23:10:42.378Z,25.30
2019-01-25T23:13:16.289Z,25.63
2019-01-25T23:15:47.155Z,22.40
2019-01-25T23:18:18.093Z,21.83
2019-01-25T23:20:49.172Z,22.67
2019-01-25T23:23:20.023Z,25.80
2019-01-25T23:25:51.891Z,25.90
2019-01-25T23:28:22.741Z,28.47
2019-01-25T23:30:53.552Z,23.63
2019-01-25T23:33:24.324Z,25.37
2019-01-25T23:35:55.187Z,26.83
2019-01-25T23:38:25.931Z,24.30
2019-01-25T23:40:57.050Z,25.90
2019-01-25T23:43:28.073Z,24.67
2019-01-25T23:45:58.934Z,24.67
2019-01-25T23:48:29.749Z,26.03
2019-01-25T23:51:00.776Z,25.73
2019-01-25T23:53:31.784Z,24.87
2019-01-25T23:56:02.575Z,24.37
2019-01-25T23:58:34.564Z,25.17
